Time;durP1;ratioP1;P1;durP2;ratioP2;P2;SDS_P1;SDS_P2;PMS_P1;PMS_P2;Temp;Humidity;BMP_temperature;BMP_pressure;BME280_temperature;BME280_humidity;BME280_pressure;Samples;Min_cycle;Max_cycle;Signal;HPM_P1;HPM_P2
2022/05/24 00:00:36;;;;;;;16.40;9.43;;;;;;;;;;770237;178;919304;-66
2022/05/24 00:03:02;;;;;;;10.20;6.35;;;;;;;;;;774338;180;919120;-65
2022/05/24 00:05:28;;;;;;;8.83;5.50;;;;;;;;;;766629;183;918654;-66
2022/05/24 00:07:54;;;;;;;6.57;5.43;;;;;;;;;;765127;181;919524;-66
2022/05/24 00:10:20;;;;;;;8.40;5.87;;;;;;;;;;771941;178;670392;-68
2022/05/24 00:12:46;;;;;;;9.10;6.20;;;;;;;;;;780492;177;620661;-66
2022/05/24 00:17:44;;;;;;;6.57;5.40;;;;;;;;;;766670;183;918096;-65
2022/05/24 00:20:10;;;;;;;9.82;5.72;;;;;;;;;;767837;180;918816;-65
2022/05/24 00:22:36;;;;;;;9.33;6.00;;;;;;;;;;765712;180;919836;-66
2022/05/24 00:25:02;;;;;;;7.73;5.83;;;;;;;;;;752373;182;919223;-66
2022/05/24 00:27:28;;;;;;;7.30;5.77;;;;;;;;;;752327;186;918626;-65
2022/05/24 00:29:53;;;;;;;7.20;5.97;;;;;;;;;;758828;183;919737;-66
2022/05/24 00:32:19;;;;;;;8.70;5.97;;;;;;;;;;770705;180;1021393;-66
2022/05/24 00:34:45;;;;;;;9.80;6.67;;;;;;;;;;768632;182;1020707;-65
2022/05/24 00:37:11;;;;;;;7.97;5.67;;;;;;;;;;779666;181;919428;-66
2022/05/24 00:39:37;;;;;;;8.57;6.00;;;;;;;;;;764784;178;919728;-66
2022/05/24 00:42:07;;;;;;;8.37;5.83;;;;;;;;;;764960;178;918842;-66
2022/05/24 00:44:33;;;;;;;8.23;5.03;;;;;;;;;;768907;180;919096;-66
2022/05/24 00:46:59;;;;;;;7.50;5.23;;;;;;;;;;776788;179;919640;-66
2022/05/24 00:49:26;;;;;;;7.70;6.03;;;;;;;;;;769779;180;919526;-65
2022/05/24 00:51:52;;;;;;;7.30;5.67;;;;;;;;;;763735;180;989477;-67
2022/05/24 00:54:17;;;;;;;8.07;5.70;;;;;;;;;;768878;181;920115;-67
2022/05/24 00:56:46;;;;;;;8.33;6.13;;;;;;;;;;767385;182;919640;-66
2022/05/24 00:59:27;;;;;;;8.13;5.13;;;;;;;;;;770779;182;919725;-66
2022/05/24 01:01:53;;;;;;;13.43;6.90;;;;;;;;;;767190;181;919326;-66
2022/05/24 01:04:19;;;;;;;6.63;5.33;;;;;;;;;;771972;181;918655;-66
2022/05/24 01:06:44;;;;;;;8.35;5.75;;;;;;;;;;769675;182;918710;-66
2022/05/24 01:09:11;;;;;;;7.37;4.87;;;;;;;;;;769307;180;918619;-66
2022/05/24 01:11:37;;;;;;;7.17;4.83;;;;;;;;;;778129;178;916889;-66
2022/05/24 01:14:03;;;;;;;8.27;5.90;;;;;;;;;;776539;179;919218;-66
2022/05/24 01:16:29;;;;;;;7.73;5.10;;;;;;;;;;770082;179;918896;-66
2022/05/24 01:18:54;;;;;;;7.77;5.77;;;;;;;;;;763997;180;919105;-66
2022/05/24 01:21:21;;;;;;;7.80;5.23;;;;;;;;;;775581;179;928541;-67
2022/05/24 01:24:02;;;;;;;9.30;5.80;;;;;;;;;;769127;182;1020704;-66
2022/05/24 01:26:42;;;;;;;7.10;4.93;;;;;;;;;;765596;180;919001;-65
2022/05/24 01:29:07;;;;;;;9.60;5.30;;;;;;;;;;762688;178;998231;-65
2022/05/24 01:36:37;;;;;;;12.43;6.57;;;;;;;;;;762641;182;917127;-65
2022/05/24 01:39:04;;;;;;;8.17;5.60;;;;;;;;;;757030;184;917222;-64
2022/05/24 01:41:30;;;;;;;7.30;5.57;;;;;;;;;;758522;182;911728;-64
2022/05/24 01:43:56;;;;;;;11.53;4.60;;;;;;;;;;769515;179;912788;-64
2022/05/24 01:46:21;;;;;;;7.53;6.10;;;;;;;;;;772278;179;912973;-64
2022/05/24 01:48:48;;;;;;;11.47;6.27;;;;;;;;;;766628;181;911715;-64
2022/05/24 01:51:14;;;;;;;9.60;5.07;;;;;;;;;;764229;179;912843;-64
2022/05/24 01:53:42;;;;;;;7.70;5.27;;;;;;;;;;776102;180;915854;-65
2022/05/24 01:56:06;;;;;;;9.57;6.60;;;;;;;;;;764531;181;916058;-64
2022/05/24 01:58:32;;;;;;;7.55;5.30;;;;;;;;;;768058;181;919395;-64
2022/05/24 02:00:59;;;;;;;6.90;5.60;;;;;;;;;;774176;179;1022061;-64
2022/05/24 02:03:25;;;;;;;9.27;5.13;;;;;;;;;;762304;181;918697;-64
2022/05/24 02:05:51;;;;;;;10.00;4.95;;;;;;;;;;760151;181;1242910;-64
2022/05/24 02:08:16;;;;;;;10.50;5.60;;;;;;;;;;768329;181;919519;-64
2022/05/24 02:10:43;;;;;;;8.50;5.97;;;;;;;;;;764146;178;918539;-65
2022/05/24 02:13:09;;;;;;;7.27;5.80;;;;;;;;;;770690;180;919078;-65
2022/05/24 02:15:35;;;;;;;7.80;5.13;;;;;;;;;;769702;180;918823;-64
2022/05/24 02:18:02;;;;;;;13.40;6.00;;;;;;;;;;781387;177;919305;-65
2022/05/24 02:20:29;;;;;;;8.27;6.17;;;;;;;;;;778053;177;919643;-64
2022/05/24 02:22:55;;;;;;;7.50;5.10;;;;;;;;;;766395;177;919090;-64
2022/05/24 02:25:23;;;;;;;9.13;5.68;;;;;;;;;;774452;177;918412;-64
2022/05/24 02:27:49;;;;;;;13.40;6.07;;;;;;;;;;770543;178;919187;-64
2022/05/24 02:30:14;;;;;;;10.57;5.68;;;;;;;;;;776141;177;1026531;-64
2022/05/24 02:32:40;;;;;;;6.50;5.40;;;;;;;;;;771069;177;1225778;-65
2022/05/24 02:35:07;;;;;;;8.40;5.73;;;;;;;;;;765892;177;919113;-65
2022/05/24 02:37:32;;;;;;;10.27;6.90;;;;;;;;;;771659;178;919234;-65
2022/05/24 02:42:30;;;;;;;10.57;6.20;;;;;;;;;;775500;181;918760;-65
2022/05/24 02:44:56;;;;;;;12.27;7.53;;;;;;;;;;771648;178;919171;-66
2022/05/24 02:47:22;;;;;;;8.47;6.43;;;;;;;;;;767724;180;919516;-65
2022/05/24 02:49:48;;;;;;;11.03;6.67;;;;;;;;;;777223;180;917665;-65
2022/05/24 02:52:14;;;;;;;8.37;6.37;;;;;;;;;;772882;180;918570;-65
2022/05/24 02:54:39;;;;;;;13.60;5.73;;;;;;;;;;764316;179;919328;-65
2022/05/24 02:57:05;;;;;;;9.17;6.20;;;;;;;;;;766949;180;918273;-65
2022/05/24 02:59:31;;;;;;;6.60;5.50;;;;;;;;;;772869;181;918968;-64
2022/05/24 03:01:57;;;;;;;8.73;6.07;;;;;;;;;;767153;178;926876;-66
2022/05/24 03:04:23;;;;;;;8.27;5.37;;;;;;;;;;765006;181;919590;-65
2022/05/24 03:14:24;;;;;;;7.73;5.87;;;;;;;;;;763981;180;918481;-65
2022/05/24 03:16:49;;;;;;;8.10;6.00;;;;;;;;;;772897;177;918710;-66
2022/05/24 03:19:15;;;;;;;6.90;5.67;;;;;;;;;;758887;180;918042;-66
2022/05/24 03:21:41;;;;;;;8.53;6.30;;;;;;;;;;763617;180;923536;-65
2022/05/24 03:24:08;;;;;;;8.10;6.50;;;;;;;;;;765275;182;918484;-65
2022/05/24 03:26:33;;;;;;;8.45;6.30;;;;;;;;;;771577;180;920337;-65
2022/05/24 03:28:59;;;;;;;8.37;6.10;;;;;;;;;;762858;180;919029;-65
2022/05/24 03:31:24;;;;;;;9.83;6.20;;;;;;;;;;765445;181;919161;-66
2022/05/24 03:33:50;;;;;;;9.40;6.27;;;;;;;;;;774018;176;921990;-66
2022/05/24 03:36:19;;;;;;;9.67;6.83;;;;;;;;;;769446;179;919038;-65
2022/05/24 03:38:42;;;;;;;11.17;6.30;;;;;;;;;;769863;179;918486;-65
2022/05/24 03:41:08;;;;;;;7.30;5.57;;;;;;;;;;771168;179;919243;-65
2022/05/24 03:43:34;;;;;;;7.70;6.13;;;;;;;;;;767651;180;919156;-65
2022/05/24 03:46:02;;;;;;;8.20;5.87;;;;;;;;;;771017;177;925384;-66
2022/05/24 03:48:28;;;;;;;10.90;6.57;;;;;;;;;;767097;180;919061;-65
2022/05/24 03:50:55;;;;;;;9.33;5.80;;;;;;;;;;770022;180;918462;-66
2022/05/24 03:53:20;;;;;;;12.03;6.57;;;;;;;;;;765062;180;920545;-65
2022/05/24 03:55:46;;;;;;;9.30;6.47;;;;;;;;;;766395;178;918824;-66
2022/05/24 03:58:12;;;;;;;9.13;6.60;;;;;;;;;;771159;179;921036;-65
2022/05/24 04:00:38;;;;;;;10.17;6.67;;;;;;;;;;764672;177;918917;-66
2022/05/24 04:03:03;;;;;;;10.00;6.93;;;;;;;;;;769728;179;919028;-66
2022/05/24 04:05:29;;;;;;;10.40;6.93;;;;;;;;;;770768;178;919039;-66
2022/05/24 04:07:55;;;;;;;11.20;7.03;;;;;;;;;;765664;180;919704;-66
2022/05/24 04:10:21;;;;;;;10.80;7.32;;;;;;;;;;767922;180;920423;-66
2022/05/24 04:12:47;;;;;;;14.48;8.13;;;;;;;;;;750942;181;920040;-66
2022/05/24 04:15:13;;;;;;;11.40;9.23;;;;;;;;;;765496;179;918344;-66
2022/05/24 04:17:39;;;;;;;16.20;9.27;;;;;;;;;;765993;179;919352;-66
2022/05/24 04:20:05;;;;;;;15.70;10.70;;;;;;;;;;766698;177;920881;-66
2022/05/24 04:22:31;;;;;;;13.47;9.57;;;;;;;;;;772517;180;918469;-66
2022/05/24 04:24:57;;;;;;;16.00;12.73;;;;;;;;;;767077;177;918303;-66
2022/05/24 04:27:23;;;;;;;13.40;10.93;;;;;;;;;;766291;178;917956;-67
2022/05/24 04:29:51;;;;;;;17.57;10.17;;;;;;;;;;773954;181;630915;-66
2022/05/24 04:32:14;;;;;;;15.03;8.53;;;;;;;;;;768313;179;919545;-66
2022/05/24 04:34:40;;;;;;;14.50;9.50;;;;;;;;;;766332;179;923620;-67
2022/05/24 04:37:07;;;;;;;12.10;9.93;;;;;;;;;;773056;177;631815;-68
2022/05/24 04:39:32;;;;;;;19.37;11.40;;;;;;;;;;766168;182;659625;-67
2022/05/24 04:44:29;;;;;;;9.90;7.97;;;;;;;;;;768608;181;1019539;-67
2022/05/24 04:49:27;;;;;;;16.47;7.67;;;;;;;;;;771230;180;914656;-68
2022/05/24 04:51:53;;;;;;;10.63;7.20;;;;;;;;;;770673;177;642297;-68
2022/05/24 04:54:19;;;;;;;9.23;7.00;;;;;;;;;;770829;177;913923;-67
2022/05/24 04:56:46;;;;;;;13.57;6.80;;;;;;;;;;773536;179;916000;-67
2022/05/24 04:59:10;;;;;;;15.53;7.23;;;;;;;;;;767099;180;916624;-67
2022/05/24 05:01:36;;;;;;;10.27;5.70;;;;;;;;;;771360;179;813107;-67
2022/05/24 05:04:02;;;;;;;6.90;5.47;;;;;;;;;;768537;179;1703811;-68
2022/05/24 05:06:28;;;;;;;7.17;5.53;;;;;;;;;;769248;177;910634;-67
2022/05/24 05:08:54;;;;;;;10.80;5.87;;;;;;;;;;766884;180;918740;-67
2022/05/24 05:11:20;;;;;;;9.53;6.30;;;;;;;;;;772733;181;919369;-67
2022/05/24 05:13:46;;;;;;;7.60;5.90;;;;;;;;;;767772;181;919575;-67
2022/05/24 05:16:11;;;;;;;7.70;6.27;;;;;;;;;;765909;180;919243;-67
2022/05/24 05:18:37;;;;;;;6.13;5.37;;;;;;;;;;765559;178;918701;-67
2022/05/24 05:21:03;;;;;;;7.10;5.63;;;;;;;;;;771624;181;918531;-69
2022/05/24 05:23:29;;;;;;;9.57;6.07;;;;;;;;;;765638;179;919465;-67
2022/05/24 05:25:55;;;;;;;9.10;5.20;;;;;;;;;;767764;180;919583;-67
2022/05/24 05:28:20;;;;;;;7.00;5.10;;;;;;;;;;772651;180;920604;-65
2022/05/24 05:33:18;;;;;;;8.97;5.43;;;;;;;;;;766982;180;925053;-69
2022/05/24 05:35:44;;;;;;;7.47;5.10;;;;;;;;;;766084;181;918607;-67
2022/05/24 05:38:10;;;;;;;8.60;5.67;;;;;;;;;;772634;181;1020885;-67
2022/05/24 05:40:35;;;;;;;11.47;5.47;;;;;;;;;;768356;180;948299;-67
2022/05/24 05:43:01;;;;;;;9.47;4.57;;;;;;;;;;765112;177;1021891;-66
2022/05/24 05:45:27;;;;;;;8.27;4.20;;;;;;;;;;768683;181;919462;-68
2022/05/24 05:47:54;;;;;;;17.57;4.70;;;;;;;;;;767812;181;926494;-68
2022/05/24 05:50:20;;;;;;;8.77;4.73;;;;;;;;;;762760;183;918188;-67
2022/05/24 05:52:45;;;;;;;10.90;4.23;;;;;;;;;;769549;180;918284;-67
2022/05/24 05:55:11;;;;;;;5.53;3.90;;;;;;;;;;772813;177;919352;-68
2022/05/24 05:57:38;;;;;;;7.40;4.07;;;;;;;;;;769884;181;919054;-67
2022/05/24 06:00:04;;;;;;;8.20;3.90;;;;;;;;;;770090;179;918939;-70
2022/05/24 06:02:29;;;;;;;7.07;3.97;;;;;;;;;;770635;179;918517;-68
2022/05/24 06:04:55;;;;;;;8.37;3.67;;;;;;;;;;771743;179;919199;-67
2022/05/24 06:07:23;;;;;;;7.60;4.70;;;;;;;;;;773531;179;918719;-67
2022/05/24 06:09:47;;;;;;;5.20;3.33;;;;;;;;;;771610;180;921296;-68
2022/05/24 06:12:13;;;;;;;7.10;4.20;;;;;;;;;;763121;178;969436;-68
2022/05/24 06:14:39;;;;;;;8.50;4.40;;;;;;;;;;763471;180;942879;-67
2022/05/24 06:17:05;;;;;;;4.53;3.73;;;;;;;;;;768851;184;918906;-67
2022/05/24 06:19:30;;;;;;;6.23;4.33;;;;;;;;;;764707;181;918946;-67
2022/05/24 06:21:56;;;;;;;6.83;4.50;;;;;;;;;;765165;180;918815;-68
2022/05/24 06:24:23;;;;;;;10.32;4.65;;;;;;;;;;772377;180;919937;-69
2022/05/24 06:26:50;;;;;;;8.20;4.53;;;;;;;;;;781074;178;919517;-67
2022/05/24 06:29:14;;;;;;;9.10;4.47;;;;;;;;;;772168;180;918732;-67
2022/05/24 06:31:42;;;;;;;8.20;4.00;;;;;;;;;;775888;177;918446;-68
2022/05/24 06:34:06;;;;;;;5.80;3.70;;;;;;;;;;776428;179;1121598;-68
2022/05/24 06:36:32;;;;;;;7.63;4.00;;;;;;;;;;778951;180;918957;-68
2022/05/24 06:38:58;;;;;;;6.83;3.83;;;;;;;;;;774465;180;924100;-68
2022/05/24 06:41:24;;;;;;;6.93;4.43;;;;;;;;;;766997;184;919469;-68
2022/05/24 06:43:49;;;;;;;6.28;4.30;;;;;;;;;;768856;180;918986;-68
2022/05/24 06:46:15;;;;;;;6.50;3.90;;;;;;;;;;766786;180;919011;-70
2022/05/24 06:48:42;;;;;;;8.20;4.17;;;;;;;;;;770517;181;942469;-68
2022/05/24 06:51:07;;;;;;;8.43;4.30;;;;;;;;;;763570;183;947099;-69
2022/05/24 06:53:34;;;;;;;6.80;3.97;;;;;;;;;;762000;181;918891;-70
2022/05/24 06:55:59;;;;;;;4.87;4.00;;;;;;;;;;765967;179;919388;-68
2022/05/24 06:58:24;;;;;;;9.03;3.80;;;;;;;;;;776053;180;916624;-70
2022/05/24 07:03:22;;;;;;;7.93;4.57;;;;;;;;;;764372;177;916878;-70
2022/05/24 07:05:48;;;;;;;14.07;4.40;;;;;;;;;;773389;181;916127;-69
2022/05/24 07:08:13;;;;;;;5.97;4.03;;;;;;;;;;773034;178;916596;-68
2022/05/24 07:10:39;;;;;;;5.97;3.85;;;;;;;;;;770448;178;915627;-69
2022/05/24 07:13:05;;;;;;;5.63;4.03;;;;;;;;;;769075;178;1125718;-68
2022/05/24 07:15:31;;;;;;;5.90;3.93;;;;;;;;;;768489;179;914771;-70
2022/05/24 07:17:57;;;;;;;7.77;4.00;;;;;;;;;;771469;180;623038;-69
2022/05/24 07:20:23;;;;;;;5.03;4.07;;;;;;;;;;768206;180;915024;-69
2022/05/24 07:22:49;;;;;;;10.57;4.30;;;;;;;;;;773544;179;929940;-69
2022/05/24 07:25:14;;;;;;;6.33;4.43;;;;;;;;;;767909;177;920047;-69
2022/05/24 07:27:40;;;;;;;6.67;4.10;;;;;;;;;;768890;177;918722;-68
2022/05/24 07:30:07;;;;;;;11.93;4.47;;;;;;;;;;775785;179;914482;-70
2022/05/24 07:32:34;;;;;;;6.77;3.50;;;;;;;;;;768100;181;615578;-69
2022/05/24 07:34:59;;;;;;;8.97;4.80;;;;;;;;;;768741;180;916017;-70
2022/05/24 07:37:24;;;;;;;5.83;3.87;;;;;;;;;;767605;180;915199;-68
2022/05/24 07:45:47;;;;;;;8.20;5.13;;;;;;;;;;764304;183;916040;-68
2022/05/24 07:47:30;;;;;;;8.40;5.00;;;;;;;;;;748699;181;923114;-69
2022/05/24 07:49:56;;;;;;;9.67;4.20;;;;;;;;;;771402;178;919069;-69
2022/05/24 07:52:22;;;;;;;6.67;3.80;;;;;;;;;;766079;177;919571;-68
2022/05/24 07:54:48;;;;;;;6.90;4.53;;;;;;;;;;764616;178;918261;-68
2022/05/24 07:57:14;;;;;;;5.00;3.80;;;;;;;;;;770818;177;919295;-68
2022/05/24 07:59:43;;;;;;;6.67;5.27;;;;;;;;;;770681;181;910521;-69
2022/05/24 08:02:06;;;;;;;9.73;4.10;;;;;;;;;;767106;179;916584;-68
2022/05/24 08:04:31;;;;;;;6.97;4.50;;;;;;;;;;767181;180;919338;-69
2022/05/24 08:06:57;;;;;;;6.77;4.43;;;;;;;;;;774149;177;918567;-69
2022/05/24 08:09:23;;;;;;;6.17;5.03;;;;;;;;;;766512;180;919806;-69
2022/05/24 08:11:49;;;;;;;6.40;4.60;;;;;;;;;;767453;180;918551;-69
2022/05/24 08:14:15;;;;;;;7.60;3.90;;;;;;;;;;774445;180;918565;-69
2022/05/24 08:16:41;;;;;;;7.70;4.87;;;;;;;;;;771016;178;1006696;-71
2022/05/24 08:19:08;;;;;;;8.53;4.07;;;;;;;;;;768147;179;919377;-68
2022/05/24 08:21:32;;;;;;;5.67;4.17;;;;;;;;;;777975;179;918932;-70
2022/05/24 08:23:58;;;;;;;6.97;4.20;;;;;;;;;;768823;180;919026;-69
2022/05/24 08:26:25;;;;;;;6.90;4.70;;;;;;;;;;769451;177;919206;-69
2022/05/24 08:28:51;;;;;;;8.53;4.50;;;;;;;;;;768633;177;919209;-68
2022/05/24 08:31:16;;;;;;;6.40;5.10;;;;;;;;;;775272;181;623503;-70
2022/05/24 08:33:41;;;;;;;6.53;4.23;;;;;;;;;;768482;178;917749;-68
2022/05/24 08:36:07;;;;;;;7.17;4.33;;;;;;;;;;769336;178;919161;-69
2022/05/24 08:38:34;;;;;;;7.87;4.60;;;;;;;;;;770827;179;918891;-72
2022/05/24 08:41:00;;;;;;;6.67;4.90;;;;;;;;;;765172;177;919634;-71
2022/05/24 08:43:28;;;;;;;8.00;4.53;;;;;;;;;;763873;181;1021050;-68
2022/05/24 08:48:26;;;;;;;7.73;5.40;;;;;;;;;;774199;180;919373;-68
2022/05/24 08:51:02;;;;;;;13.43;4.33;;;;;;;;;;770885;180;619461;-69
2022/05/24 08:53:33;;;;;;;7.10;4.20;;;;;;;;;;769087;180;919575;-69
2022/05/24 08:55:59;;;;;;;5.53;3.70;;;;;;;;;;768563;181;915875;-68
2022/05/24 08:58:34;;;;;;;6.00;4.33;;;;;;;;;;771075;178;919056;-68
2022/05/24 09:01:01;;;;;;;6.78;4.50;;;;;;;;;;771691;179;920998;-70
2022/05/24 09:03:26;;;;;;;8.50;5.60;;;;;;;;;;765836;177;918306;-69
2022/05/24 09:05:55;;;;;;;4.85;4.00;;;;;;;;;;766819;177;918677;-69
2022/05/24 09:08:23;;;;;;;5.33;4.60;;;;;;;;;;768979;178;1332302;-70
2022/05/24 09:10:53;;;;;;;5.30;4.15;;;;;;;;;;765362;179;918560;-70
2022/05/24 09:13:23;;;;;;;6.77;4.20;;;;;;;;;;770103;178;919066;-69
2022/05/24 09:15:49;;;;;;;5.70;3.83;;;;;;;;;;765240;178;933823;-69
2022/05/24 09:18:21;;;;;;;6.10;3.47;;;;;;;;;;771182;180;919331;-69
2022/05/24 09:20:46;;;;;;;7.90;4.20;;;;;;;;;;766309;180;919253;-68
2022/05/24 09:23:18;;;;;;;10.30;4.00;;;;;;;;;;766921;181;918938;-68
2022/05/24 09:25:50;;;;;;;4.20;3.47;;;;;;;;;;765238;181;937956;-69
2022/05/24 09:28:15;;;;;;;7.90;4.60;;;;;;;;;;773400;180;918789;-68
2022/05/24 09:30:41;;;;;;;5.20;3.90;;;;;;;;;;772863;180;919081;-68
2022/05/24 09:33:13;;;;;;;6.93;4.07;;;;;;;;;;775726;179;900575;-69
2022/05/24 09:35:39;;;;;;;7.00;4.33;;;;;;;;;;762997;180;917839;-68
2022/05/24 09:38:07;;;;;;;6.40;4.00;;;;;;;;;;770606;180;918950;-68
2022/05/24 09:40:31;;;;;;;5.23;3.23;;;;;;;;;;769467;179;919448;-68
2022/05/24 09:42:57;;;;;;;9.77;4.50;;;;;;;;;;765181;181;1021424;-68
2022/05/24 09:45:23;;;;;;;5.30;4.13;;;;;;;;;;770559;178;918223;-68
2022/05/24 09:47:57;;;;;;;4.50;4.00;;;;;;;;;;762296;183;919464;-67
2022/05/24 09:50:24;;;;;;;6.03;3.80;;;;;;;;;;769146;181;919172;-69
2022/05/24 09:52:56;;;;;;;5.00;4.37;;;;;;;;;;763408;181;919450;-68
2022/05/24 09:55:21;;;;;;;6.10;4.03;;;;;;;;;;763793;180;918963;-67
2022/05/24 09:57:47;;;;;;;7.93;3.90;;;;;;;;;;762804;184;918269;-69
2022/05/24 10:00:19;;;;;;;10.77;4.60;;;;;;;;;;759926;183;919355;-69
2022/05/24 10:02:42;;;;;;;5.30;4.00;;;;;;;;;;764639;181;921045;-69
2022/05/24 10:05:21;;;;;;;4.80;4.30;;;;;;;;;;778775;178;629431;-69
2022/05/24 10:07:52;;;;;;;8.30;4.80;;;;;;;;;;780169;181;649722;-69
2022/05/24 10:10:18;;;;;;;8.30;4.53;;;;;;;;;;774624;177;628428;-71
2022/05/24 10:12:50;;;;;;;10.33;4.50;;;;;;;;;;773845;177;616085;-72
2022/05/24 10:15:17;;;;;;;8.00;4.30;;;;;;;;;;777215;177;626876;-70
2022/05/24 10:18:00;;;;;;;8.63;3.67;;;;;;;;;;774482;180;1020339;-71
2022/05/24 10:20:32;;;;;;;10.07;5.07;;;;;;;;;;773687;180;918274;-71
2022/05/24 10:23:01;;;;;;;5.10;3.60;;;;;;;;;;769614;178;1022222;-68
2022/05/24 10:25:30;;;;;;;11.20;4.70;;;;;;;;;;763819;180;918138;-70
2022/05/24 10:27:57;;;;;;;8.00;4.40;;;;;;;;;;763475;178;1020357;-70
2022/05/24 10:30:23;;;;;;;8.30;5.53;;;;;;;;;;769208;177;918568;-70
2022/05/24 10:38:28;;;;;;;6.80;4.70;;;;;;;;;;771107;179;629569;-71
2022/05/24 10:40:54;;;;;;;7.67;4.47;;;;;;;;;;777118;180;622192;-69
2022/05/24 10:43:20;;;;;;;12.30;5.00;;;;;;;;;;772175;176;918772;-69
2022/05/24 10:45:50;;;;;;;6.80;4.30;;;;;;;;;;772272;177;917792;-69
2022/05/24 10:48:22;;;;;;;6.00;4.83;;;;;;;;;;773120;177;917949;-68
2022/05/24 10:50:48;;;;;;;7.20;5.13;;;;;;;;;;770887;177;919116;-70
2022/05/24 10:53:19;;;;;;;5.65;4.57;;;;;;;;;;770391;177;1021419;-69
2022/05/24 10:56:00;;;;;;;7.07;4.30;;;;;;;;;;771103;177;918723;-68
2022/05/24 10:58:26;;;;;;;5.57;5.00;;;;;;;;;;769742;182;919710;-71
2022/05/24 11:00:52;;;;;;;6.07;4.60;;;;;;;;;;763229;178;919010;-71
2022/05/24 11:03:19;;;;;;;4.93;3.77;;;;;;;;;;763187;178;920491;-71
2022/05/24 11:05:45;;;;;;;6.50;4.17;;;;;;;;;;763324;180;919140;-71
2022/05/24 11:08:16;;;;;;;10.80;6.40;;;;;;;;;;768948;181;920870;-70
2022/05/24 11:10:42;;;;;;;7.97;4.33;;;;;;;;;;766479;178;919158;-71
2022/05/24 11:13:10;;;;;;;6.20;5.10;;;;;;;;;;774649;178;918932;-71
2022/05/24 11:15:39;;;;;;;7.87;5.03;;;;;;;;;;776116;178;916076;-70
2022/05/24 11:18:09;;;;;;;10.33;3.97;;;;;;;;;;779138;180;915432;-70
2022/05/24 11:20:35;;;;;;;5.90;4.50;;;;;;;;;;773077;177;915753;-71
2022/05/24 11:23:18;;;;;;;8.27;4.20;;;;;;;;;;768718;180;916242;-71
2022/05/24 11:25:44;;;;;;;7.33;4.47;;;;;;;;;;765718;180;915702;-71
2022/05/24 11:28:11;;;;;;;5.60;4.17;;;;;;;;;;769292;179;919440;-70
2022/05/24 11:30:37;;;;;;;5.23;4.73;;;;;;;;;;766053;181;918668;-71
2022/05/24 11:33:05;;;;;;;5.60;4.80;;;;;;;;;;770649;177;935030;-71
2022/05/24 11:35:35;;;;;;;6.82;5.25;;;;;;;;;;769434;179;919861;-71
2022/05/24 11:37:59;;;;;;;5.87;4.70;;;;;;;;;;770515;180;917935;-71
2022/05/24 11:40:30;;;;;;;9.63;5.00;;;;;;;;;;764065;178;918723;-70
2022/05/24 11:42:57;;;;;;;5.80;4.70;;;;;;;;;;767317;178;919313;-71
2022/05/24 11:45:39;;;;;;;7.70;4.87;;;;;;;;;;770847;177;925022;-70
2022/05/24 11:48:20;;;;;;;12.37;6.20;;;;;;;;;;770882;181;919044;-72
2022/05/24 11:50:46;;;;;;;6.47;5.80;;;;;;;;;;766949;181;919590;-70
2022/05/24 11:53:16;;;;;;;7.20;5.33;;;;;;;;;;764563;183;1021515;-71
2022/05/24 11:55:45;;;;;;;8.17;5.07;;;;;;;;;;765501;179;919301;-71
2022/05/24 11:58:17;;;;;;;8.00;4.90;;;;;;;;;;766754;179;919004;-70
2022/05/24 12:00:43;;;;;;;7.03;5.63;;;;;;;;;;775593;180;921492;-71
2022/05/24 12:08:19;;;;;;;7.43;5.37;;;;;;;;;;763377;178;919003;-71
2022/05/24 12:10:46;;;;;;;6.50;4.80;;;;;;;;;;767709;177;919108;-71
2022/05/24 12:13:11;;;;;;;8.13;4.73;;;;;;;;;;776307;177;919546;-71
2022/05/24 12:15:47;;;;;;;5.73;4.97;;;;;;;;;;771281;177;920520;-70
2022/05/24 12:18:15;;;;;;;8.30;4.97;;;;;;;;;;765016;178;918674;-71
2022/05/24 12:20:56;;;;;;;6.95;4.87;;;;;;;;;;765497;180;919052;-71
2022/05/24 12:23:28;;;;;;;8.67;5.20;;;;;;;;;;763566;181;919562;-69
2022/05/24 12:26:04;;;;;;;8.33;4.73;;;;;;;;;;772149;180;918962;-69
2022/05/24 12:28:49;;;;;;;6.77;4.97;;;;;;;;;;769475;181;918665;-70
2022/05/24 12:31:14;;;;;;;6.67;5.57;;;;;;;;;;772077;181;980268;-70
2022/05/24 12:33:46;;;;;;;9.43;5.70;;;;;;;;;;766149;182;1021571;-69
2022/05/24 12:36:18;;;;;;;5.80;5.20;;;;;;;;;;768669;177;916821;-70
2022/05/24 12:38:45;;;;;;;8.00;5.90;;;;;;;;;;769129;181;917582;-71
2022/05/24 12:41:15;;;;;;;8.13;6.40;;;;;;;;;;775973;181;920759;-69
2022/05/24 12:43:47;;;;;;;11.10;7.27;;;;;;;;;;776858;181;917475;-70
2022/05/24 12:46:14;;;;;;;9.57;6.37;;;;;;;;;;770857;180;920724;-71
2022/05/24 12:48:41;;;;;;;11.53;5.60;;;;;;;;;;764233;180;918033;-69
2022/05/24 12:51:07;;;;;;;9.90;4.83;;;;;;;;;;768094;178;917906;-69
2022/05/24 12:53:33;;;;;;;6.30;4.83;;;;;;;;;;770973;177;918839;-70
2022/05/24 12:55:59;;;;;;;6.53;5.43;;;;;;;;;;767880;178;919469;-70
2022/05/24 12:58:27;;;;;;;9.47;5.63;;;;;;;;;;767411;183;621122;-70
2022/05/24 13:00:53;;;;;;;10.63;5.70;;;;;;;;;;771410;178;631185;-70
2022/05/24 13:03:22;;;;;;;7.03;6.33;;;;;;;;;;768350;180;657802;-70
2022/05/24 13:05:47;;;;;;;8.47;5.73;;;;;;;;;;772725;180;626786;-69
2022/05/24 13:08:13;;;;;;;8.53;6.07;;;;;;;;;;772682;179;651659;-71
2022/05/24 13:10:39;;;;;;;8.57;6.40;;;;;;;;;;772719;180;625914;-71
2022/05/24 13:13:06;;;;;;;10.03;6.90;;;;;;;;;;775797;177;633485;-70
2022/05/24 13:15:34;;;;;;;7.57;5.80;;;;;;;;;;772899;179;632705;-70
2022/05/24 13:18:03;;;;;;;7.90;6.33;;;;;;;;;;775492;180;633120;-71
2022/05/24 13:20:26;;;;;;;10.60;5.70;;;;;;;;;;770060;179;624103;-69
2022/05/24 13:22:52;;;;;;;9.03;6.40;;;;;;;;;;768348;179;619051;-69
2022/05/24 13:25:18;;;;;;;8.87;6.30;;;;;;;;;;774506;181;642196;-69
2022/05/24 13:27:49;;;;;;;8.57;5.93;;;;;;;;;;772925;180;640111;-70
2022/05/24 13:35:17;;;;;;;9.00;7.60;;;;;;;;;;771266;179;918186;-70
2022/05/24 13:37:46;;;;;;;8.10;5.97;;;;;;;;;;774294;179;913206;-69
2022/05/24 13:40:12;;;;;;;13.87;7.33;;;;;;;;;;770111;177;635020;-71
2022/05/24 13:42:38;;;;;;;10.03;7.33;;;;;;;;;;767593;178;616738;-70
2022/05/24 13:45:07;;;;;;;9.87;6.30;;;;;;;;;;778529;180;919361;-71
2022/05/24 13:47:33;;;;;;;10.63;7.13;;;;;;;;;;770700;180;632846;-70
2022/05/24 13:49:58;;;;;;;9.40;5.83;;;;;;;;;;763174;185;629795;-69
2022/05/24 13:52:40;;;;;;;7.37;6.20;;;;;;;;;;777182;180;918463;-70
2022/05/24 13:55:09;;;;;;;8.50;6.03;;;;;;;;;;774414;183;618664;-71
2022/05/24 13:57:35;;;;;;;7.03;5.65;;;;;;;;;;760033;182;956011;-69
2022/05/24 14:00:03;;;;;;;8.43;5.90;;;;;;;;;;766842;177;617110;-69
2022/05/24 14:02:29;;;;;;;12.40;7.30;;;;;;;;;;772714;177;620350;-70
2022/05/24 14:04:55;;;;;;;8.40;6.80;;;;;;;;;;771192;181;626862;-70
2022/05/24 14:07:20;;;;;;;12.20;6.70;;;;;;;;;;763536;181;1120348;-70
2022/05/24 14:09:46;;;;;;;6.87;6.10;;;;;;;;;;767658;179;619114;-69
2022/05/24 14:12:13;;;;;;;8.03;6.10;;;;;;;;;;780438;179;623720;-71
2022/05/24 14:14:39;;;;;;;7.40;6.43;;;;;;;;;;772079;180;624390;-68
2022/05/24 14:17:06;;;;;;;9.93;6.90;;;;;;;;;;773150;178;640282;-70
2022/05/24 14:19:30;;;;;;;12.13;6.57;;;;;;;;;;772492;179;615081;-69
2022/05/24 14:21:57;;;;;;;8.50;6.50;;;;;;;;;;769346;180;617644;-70
2022/05/24 14:24:22;;;;;;;10.10;6.47;;;;;;;;;;771457;180;633982;-69
2022/05/24 14:26:47;;;;;;;11.93;6.47;;;;;;;;;;770670;180;632131;-70
2022/05/24 14:29:13;;;;;;;6.80;6.20;;;;;;;;;;777132;179;623627;-69
2022/05/24 14:31:39;;;;;;;8.20;6.73;;;;;;;;;;772508;177;918685;-70
2022/05/24 14:34:05;;;;;;;14.13;7.47;;;;;;;;;;773480;177;918520;-69
2022/05/24 14:36:32;;;;;;;9.23;7.47;;;;;;;;;;773505;181;921206;-70
2022/05/24 14:38:57;;;;;;;8.33;7.10;;;;;;;;;;771969;181;642926;-71
2022/05/24 14:41:23;;;;;;;8.20;6.47;;;;;;;;;;774449;181;627566;-69
2022/05/24 14:43:49;;;;;;;9.23;7.00;;;;;;;;;;767754;181;627485;-70
2022/05/24 14:46:15;;;;;;;9.23;6.37;;;;;;;;;;774305;179;627417;-69
2022/05/24 14:48:40;;;;;;;9.20;6.97;;;;;;;;;;768389;182;919249;-68
2022/05/24 14:51:06;;;;;;;10.37;6.60;;;;;;;;;;765583;178;919151;-68
2022/05/24 14:53:33;;;;;;;9.03;6.93;;;;;;;;;;776345;180;918167;-68
2022/05/24 14:55:58;;;;;;;8.20;6.83;;;;;;;;;;773612;180;659960;-68
2022/05/24 14:58:24;;;;;;;9.87;6.77;;;;;;;;;;771825;177;638302;-68
2022/05/24 15:00:50;;;;;;;8.67;7.00;;;;;;;;;;778417;181;663057;-69
2022/05/24 15:03:16;;;;;;;10.30;6.23;;;;;;;;;;770807;178;673893;-69
2022/05/24 15:05:42;;;;;;;9.97;6.47;;;;;;;;;;767371;178;653312;-69
2022/05/24 15:15:56;;;;;;;8.03;7.17;;;;;;;;;;770435;177;918890;-70
2022/05/24 15:18:21;;;;;;;19.40;7.37;;;;;;;;;;767096;181;636663;-69
2022/05/24 15:20:47;;;;;;;6.93;6.23;;;;;;;;;;767682;180;623613;-70
2022/05/24 15:23:14;;;;;;;7.90;6.57;;;;;;;;;;773489;181;643965;-70